Time;durP1;ratioP1;P1;durP2;ratioP2;P2;SDS_P1;SDS_P2;PMS_P1;PMS_P2;Temp;Humidity;BMP_temperature;BMP_pressure;BME280_temperature;BME280_humidity;BME280_pressure;Samples;Min_cycle;Max_cycle;Signal;HPM_P1;HPM_P2
2021/10/06 00:00:36;;;;;;;19.60;13.47;;;;;;;17.98;88.87;100278.19;5176924;57;21492;-87
2021/10/06 00:05:43;;;;;;;19.60;16.57;;;;;;;17.84;89.63;100283.24;5176782;57;21432;-86
2021/10/06 00:10:50;;;;;;;20.20;15.53;;;;;;;17.78;89.30;100271.05;5177138;57;21479;-86
2021/10/06 00:15:55;;;;;;;21.83;15.33;;;;;;;17.79;89.27;100265.52;5176823;57;21203;-87
2021/10/06 00:21:01;;;;;;;19.93;16.10;;;;;;;17.76;89.22;100258.34;5177024;57;21227;-86
2021/10/06 00:26:08;;;;;;;24.87;18.00;;;;;;;17.71;89.41;100271.41;5123922;57;21250;-87
2021/10/06 00:31:15;;;;;;;28.50;18.10;;;;;;;17.63;89.43;100278.91;5072496;58;21195;-87
2021/10/06 00:36:20;;;;;;;21.70;16.53;;;;;;;17.52;89.53;100281.94;5072607;58;21175;-87
2021/10/06 00:41:27;;;;;;;19.00;14.23;;;;;;;17.39;89.80;100269.09;5072965;58;21235;-87
2021/10/06 00:46:32;;;;;;;21.33;14.93;;;;;;;17.32;90.13;100256.06;5073080;58;21123;-87
2021/10/06 00:51:40;;;;;;;22.30;15.13;;;;;;;17.16;89.58;100261.41;5073187;58;21496;-87
2021/10/06 00:56:45;;;;;;;20.50;15.27;;;;;;;17.03;89.61;100276.62;5089412;57;22354;-87
2021/10/06 01:01:51;;;;;;;21.83;14.57;;;;;;;17.02;89.85;100286.97;5106819;57;21179;-87
2021/10/06 01:06:58;;;;;;;21.40;14.50;;;;;;;17.06;89.82;100308.35;5105852;58;21135;-86
2021/10/06 01:12:04;;;;;;;23.57;14.50;;;;;;;16.98;89.84;100316.34;5105487;57;21255;-87
2021/10/06 01:17:09;;;;;;;28.57;15.40;;;;;;;16.93;89.83;100311.19;5105739;57;21170;-86
2021/10/06 01:22:17;;;;;;;15.47;11.63;;;;;;;16.86;89.66;100323.84;5103568;57;21259;-87
2021/10/06 01:27:22;;;;;;;17.47;13.23;;;;;;;16.83;89.71;100326.00;5118651;57;21728;-87
2021/10/06 01:32:28;;;;;;;16.80;11.80;;;;;;;16.71;89.73;100340.67;5123190;57;21242;-86
2021/10/06 01:37:35;;;;;;;15.83;10.90;;;;;;;16.58;90.31;100353.13;5123021;57;21724;-87
2021/10/06 01:42:43;;;;;;;14.80;11.87;;;;;;;16.45;91.12;100364.26;5123199;57;21181;-87
2021/10/06 01:47:49;;;;;;;18.97;11.73;;;;;;;16.34;90.61;100370.39;5124479;57;21120;-87
2021/10/06 01:52:56;;;;;;;18.90;11.10;;;;;;;16.20;91.28;100381.12;5125971;57;22581;-87
2021/10/06 01:58:07;;;;;;;12.70;8.43;;;;;;;15.99;92.27;100372.69;5163234;57;21171;-86
2021/10/06 02:03:13;;;;;;;9.30;7.93;;;;;;;15.78;92.87;100369.03;5188288;57;21189;-87
2021/10/06 02:08:20;;;;;;;9.93;7.97;;;;;;;15.62;92.11;100367.09;5189704;57;21206;-86
2021/10/06 02:13:26;;;;;;;10.30;7.90;;;;;;;15.67;92.11;100359.47;5189911;57;21192;-86
2021/10/06 02:18:32;;;;;;;8.50;6.90;;;;;;;15.73;91.60;100346.86;5189283;57;21788;-86
2021/10/06 02:23:38;;;;;;;8.80;7.03;;;;;;;15.82;91.53;100357.91;5187962;57;21248;-87
2021/10/06 02:28:44;;;;;;;8.10;7.30;;;;;;;15.84;91.06;100365.76;5085277;58;21530;-85
2021/10/06 02:33:50;;;;;;;7.13;6.43;;;;;;;15.85;90.88;100370.59;5121302;57;21160;-89
2021/10/06 02:38:55;;;;;;;8.33;6.67;;;;;;;15.86;90.74;100365.61;5186111;57;21217;-88
2021/10/06 02:44:03;;;;;;;6.23;5.23;;;;;;;15.77;90.38;100372.20;5187765;57;21530;-87
2021/10/06 02:49:08;;;;;;;6.70;5.20;;;;;;;15.65;90.34;100368.12;5189882;57;22519;-86
2021/10/06 02:54:14;;;;;;;4.50;4.10;;;;;;;15.59;90.89;100370.05;5183534;57;21198;-89
2021/10/06 02:59:20;;;;;;;11.03;4.60;;;;;;;15.39;90.44;100373.88;5170846;57;21166;-87
2021/10/06 03:04:26;;;;;;;6.17;4.83;;;;;;;15.33;90.43;100380.64;5160512;57;21174;-88
2021/10/06 03:09:32;;;;;;;4.60;4.20;;;;;;;15.35;90.37;100398.66;5165573;57;21191;-87
2021/10/06 03:14:38;;;;;;;4.53;4.13;;;;;;;15.34;90.20;100402.80;5159777;57;22349;-87
2021/10/06 03:19:44;;;;;;;4.80;4.40;;;;;;;15.39;90.28;100413.84;5176645;57;21080;-89
2021/10/06 03:24:49;;;;;;;5.10;4.60;;;;;;;15.33;89.86;100413.11;5175201;57;21183;-88
2021/10/06 03:30:00;;;;;;;5.57;5.00;;;;;;;15.33;90.19;100425.95;5164847;57;22530;-89
2021/10/06 03:35:06;;;;;;;4.73;4.33;;;;;;;15.45;90.37;100425.22;5166761;56;21208;-88
2021/10/06 03:40:12;;;;;;;4.63;4.23;;;;;;;15.57;89.84;100436.54;5165008;57;21185;-87
2021/10/06 03:45:18;;;;;;;5.00;4.00;;;;;;;15.59;89.65;100443.37;5161136;57;21155;-88
2021/10/06 03:50:24;;;;;;;4.67;4.10;;;;;;;15.53;89.21;100447.97;5164959;57;21170;-88
2021/10/06 03:55:30;;;;;;;6.10;3.90;;;;;;;15.48;89.35;100448.91;5170471;57;21183;-87
2021/10/06 04:00:37;;;;;;;6.43;4.13;;;;;;;15.36;89.13;100448.79;5162954;57;21255;-87
2021/10/06 04:05:43;;;;;;;5.17;4.67;;;;;;;15.17;89.43;100447.09;5161341;57;21213;-86
2021/10/06 04:10:49;;;;;;;4.73;4.23;;;;;;;15.10;89.83;100466.01;5135411;57;21202;-87
2021/10/06 04:15:55;;;;;;;6.60;4.37;;;;;;;15.14;90.02;100467.36;5161060;57;21166;-89
2021/10/06 04:21:01;;;;;;;5.67;5.23;;;;;;;15.18;89.98;100460.76;5159435;57;21133;-89
2021/10/06 04:26:07;;;;;;;5.83;5.23;;;;;;;15.26;90.22;100463.53;5158638;57;21182;-87
2021/10/06 04:31:14;;;;;;;8.37;5.60;;;;;;;15.41;90.17;100466.51;5159424;57;21155;-89
2021/10/06 04:36:19;;;;;;;6.77;5.80;;;;;;;15.49;89.88;100475.91;5161530;57;21131;-87
2021/10/06 04:41:25;;;;;;;5.33;4.90;;;;;;;15.51;89.80;100477.09;5161377;57;21222;-88
2021/10/06 04:46:32;;;;;;;5.07;4.60;;;;;;;15.52;89.72;100490.27;5161061;57;21175;-87
2021/10/06 04:51:38;;;;;;;10.60;5.03;;;;;;;15.41;89.36;100501.16;5160548;57;21178;-87
2021/10/06 04:56:44;;;;;;;10.73;5.60;;;;;;;15.29;89.47;100504.50;5160754;57;21498;-86
2021/10/06 05:01:50;;;;;;;9.43;6.20;;;;;;;15.23;89.53;100503.78;5179978;56;21128;-87
2021/10/06 05:06:55;;;;;;;9.97;6.60;;;;;;;15.15;89.86;100511.67;5182175;56;21200;-87
2021/10/06 05:12:01;;;;;;;10.13;7.20;;;;;;;15.13;90.24;100512.30;5182321;57;21191;-86
2021/10/06 05:17:07;;;;;;;15.90;6.33;;;;;;;15.24;90.33;100526.78;5179805;57;21542;-87
2021/10/06 05:22:13;;;;;;;6.07;5.57;;;;;;;15.23;89.97;100541.58;5177720;57;21183;-88
2021/10/06 05:27:19;;;;;;;5.70;5.13;;;;;;;15.18;90.02;100542.51;5150680;56;21143;-86
2021/10/06 05:32:24;;;;;;;7.97;6.13;;;;;;;15.16;90.11;100537.33;5174088;57;21142;-84
2021/10/06 05:37:30;;;;;;;6.13;5.47;;;;;;;15.10;90.02;100521.95;5189945;57;21147;-84
2021/10/06 05:42:35;;;;;;;8.23;5.60;;;;;;;15.10;90.20;100537.94;5190305;56;21096;-85
2021/10/06 05:47:41;;;;;;;5.47;4.97;;;;;;;15.05;90.35;100551.69;5190237;56;21155;-84
2021/10/06 05:52:47;;;;;;;6.00;4.70;;;;;;;15.01;90.36;100558.77;5190689;57;21158;-86
2021/10/06 05:57:53;;;;;;;6.57;5.97;;;;;;;14.99;90.57;100556.25;5190407;57;21562;-85
2021/10/06 06:02:59;;;;;;;7.17;6.10;;;;;;;15.02;90.68;100552.46;5203013;56;21092;-87
2021/10/06 06:08:05;;;;;;;8.80;5.97;;;;;;;15.03;90.88;100571.45;5202878;57;21131;-87
2021/10/06 06:13:11;;;;;;;6.87;4.90;;;;;;;14.97;91.05;100582.72;5202989;57;21155;-88
2021/10/06 06:18:17;;;;;;;8.83;4.97;;;;;;;14.96;91.29;100585.03;5202729;57;21084;-86
2021/10/06 06:23:23;;;;;;;10.00;5.57;;;;;;;14.97;91.45;100596.03;5309164;56;21455;-86
2021/10/06 06:28:29;;;;;;;8.13;6.40;;;;;;;14.97;91.44;100604.02;5195251;56;21159;-87
2021/10/06 06:33:35;;;;;;;6.57;5.97;;;;;;;15.00;91.60;100626.34;5193762;57;21187;-86
2021/10/06 06:38:41;;;;;;;9.60;5.50;;;;;;;15.01;91.76;100624.03;5193647;57;21593;-87
2021/10/06 06:43:47;;;;;;;6.80;5.23;;;;;;;15.03;91.94;100632.23;5193688;57;22089;-88
2021/10/06 06:48:52;;;;;;;12.67;6.90;;;;;;;15.03;91.84;100631.39;5193505;57;21159;-88
2021/10/06 06:53:59;;;;;;;6.77;5.93;;;;;;;15.03;91.77;100642.88;5193509;57;22096;-88
2021/10/06 06:59:04;;;;;;;9.10;7.90;;;;;;;15.10;92.02;100640.50;5195413;56;21151;-89
2021/10/06 07:04:10;;;;;;;7.93;6.03;;;;;;;15.14;92.34;100652.02;5104822;56;21466;-87
2021/10/06 07:09:22;;;;;;;9.83;6.70;;;;;;;15.28;92.21;100663.20;5103477;57;21165;-88
2021/10/06 07:14:23;;;;;;;9.73;6.57;;;;;;;15.34;92.03;100674.13;5117948;56;21507;-86
2021/10/06 07:19:29;;;;;;;10.67;7.07;;;;;;;15.38;91.99;100680.02;5099371;57;21221;-88
2021/10/06 07:24:35;;;;;;;13.53;6.60;;;;;;;15.39;91.96;100696.35;5177983;56;21202;-88
2021/10/06 07:29:42;;;;;;;8.90;7.00;;;;;;;15.41;91.61;100696.56;5174596;57;21161;-87
2021/10/06 07:34:48;;;;;;;11.47;7.40;;;;;;;15.43;91.73;100706.55;5149920;57;21611;-89
2021/10/06 07:39:54;;;;;;;12.13;7.67;;;;;;;15.43;91.58;100716.38;5138057;57;21178;-88
2021/10/06 07:45:00;;;;;;;10.93;6.70;;;;;;;15.44;91.82;100713.56;5138253;57;22213;-88
2021/10/06 07:50:07;;;;;;;8.33;6.53;;;;;;;15.47;91.52;100717.77;5138666;57;21185;-90
2021/10/06 07:55:13;;;;;;;6.83;6.13;;;;;;;15.48;91.52;100712.79;5138706;57;21158;-89
2021/10/06 08:00:20;;;;;;;7.43;6.70;;;;;;;15.57;91.63;100736.45;5138419;56;21103;-89
2021/10/06 08:05:26;;;;;;;8.33;6.90;;;;;;;15.55;91.32;100730.39;5138034;57;21150;-86
2021/10/06 08:10:32;;;;;;;11.17;7.17;;;;;;;15.54;91.33;100742.03;5171107;56;21146;-87
2021/10/06 08:15:40;;;;;;;7.90;7.00;;;;;;;15.54;91.40;100754.03;5198184;56;21201;-87
2021/10/06 08:20:47;;;;;;;8.37;7.47;;;;;;;15.58;91.45;100749.64;5192583;56;21202;-88
2021/10/06 08:25:54;;;;;;;6.03;5.50;;;;;;;15.52;91.20;100742.17;5151100;56;21706;-88
2021/10/06 08:31:00;;;;;;;7.50;6.60;;;;;;;15.48;91.21;100744.28;5103611;57;21170;-84
2021/10/06 08:36:06;;;;;;;13.03;7.97;;;;;;;15.43;91.23;100750.53;5103853;58;21499;-87
2021/10/06 08:41:12;;;;;;;9.33;7.37;;;;;;;15.45;91.66;100752.56;5104907;57;21747;-87
2021/10/06 08:46:18;;;;;;;9.03;7.53;;;;;;;15.60;92.01;100759.64;5105106;57;21198;-87
2021/10/06 08:51:25;;;;;;;9.00;8.07;;;;;;;15.72;92.32;100765.66;5143848;57;21138;-89
2021/10/06 08:56:30;;;;;;;13.97;8.00;;;;;;;15.76;92.08;100771.02;5199972;56;22459;-89
2021/10/06 09:01:41;;;;;;;7.47;6.77;;;;;;;15.83;92.04;100782.31;5190948;57;21231;-85
2021/10/06 09:06:47;;;;;;;8.97;8.07;;;;;;;15.86;91.51;100782.52;5180584;56;21213;-87
2021/10/06 09:11:56;;;;;;;12.23;9.20;;;;;;;15.89;92.03;100776.86;5240214;56;21113;-85
2021/10/06 09:17:15;;;;;;;17.23;11.30;;;;;;;15.96;92.15;100783.80;5256315;56;21215;-85
2021/10/06 09:22:27;;;;;;;12.63;8.23;;;;;;;16.01;91.97;100774.87;5257094;56;21129;-84
2021/10/06 09:27:36;;;;;;;17.77;9.47;;;;;;;16.14;92.61;100782.87;5128124;56;21161;-79
2021/10/06 09:32:45;;;;;;;10.33;7.80;;;;;;;16.19;91.75;100790.44;5142630;57;21167;-77
2021/10/06 09:37:55;;;;;;;8.43;7.57;;;;;;;16.21;91.64;100795.11;5145534;57;21182;-77
2021/10/06 09:43:05;;;;;;;9.47;7.30;;;;;;;16.23;91.14;100786.46;5145442;57;21469;-78
2021/10/06 09:48:16;;;;;;;9.73;7.33;;;;;;;16.23;90.73;100806.97;5145815;57;21585;-78
2021/10/06 09:53:23;;;;;;;9.03;6.87;;;;;;;16.26;90.97;100808.86;5145090;57;21601;-78
2021/10/06 09:58:29;;;;;;;8.10;6.70;;;;;;;16.30;90.61;100813.41;5116095;57;21143;-80
2021/10/06 10:03:36;;;;;;;7.83;7.03;;;;;;;16.32;90.52;100808.77;5145077;56;21096;-78
2021/10/06 10:08:42;;;;;;;14.60;7.00;;;;;;;16.32;90.40;100822.95;5145091;57;21184;-80
2021/10/06 10:13:48;;;;;;;6.63;5.97;;;;;;;16.33;90.22;100829.98;5145109;57;21131;-80
2021/10/06 10:18:54;;;;;;;11.33;6.57;;;;;;;16.34;90.61;100838.83;5145184;57;21491;-80
2021/10/06 10:24:14;;;;;;;9.40;7.47;;;;;;;16.41;90.65;100849.23;5144748;56;21112;-84
2021/10/06 10:30:05;;;;;;;9.23;6.97;;;;;;;16.44;90.44;100855.62;5124507;57;21199;-83
2021/10/06 10:35:17;;;;;;;12.60;7.93;;;;;;;16.37;89.54;100856.70;5145195;57;21514;-83
2021/10/06 10:40:42;;;;;;;9.20;7.63;;;;;;;16.32;89.82;100861.66;5144911;57;21183;-83
2021/10/06 10:45:55;;;;;;;12.87;8.33;;;;;;;16.34;89.68;100871.70;5141405;57;21135;-83
2021/10/06 10:51:06;;;;;;;16.62;13.40;;;;;;;16.32;89.16;100887.52;5138695;57;21164;-85
2021/10/06 10:56:13;;;;;;;12.90;8.87;;;;;;;16.26;88.90;100890.26;5132153;58;21258;-86
2021/10/06 11:01:23;;;;;;;9.10;7.43;;;;;;;16.31;89.06;100902.69;5139695;57;21080;-84
2021/10/06 11:06:36;;;;;;;12.00;10.67;;;;;;;16.31;89.26;100900.02;5105272;57;21539;-87
2021/10/06 11:11:42;;;;;;;9.37;6.50;;;;;;;16.35;89.25;100912.06;5139459;57;21184;-89
2021/10/06 11:17:09;;;;;;;13.60;7.80;;;;;;;16.42;89.44;100910.98;5119334;57;21585;-87
2021/10/06 11:22:34;;;;;;;13.37;6.50;;;;;;;16.43;89.27;100910.84;4978820;58;21206;-83
2021/10/06 11:27:52;;;;;;;8.30;7.60;;;;;;;16.54;89.12;100911.14;4997817;58;21169;-83
2021/10/06 11:32:57;;;;;;;26.30;14.87;;;;;;;16.52;88.15;100919.78;4989853;58;21165;-83
2021/10/06 11:38:11;;;;;;;10.90;7.67;;;;;;;16.51;88.40;100925.63;4989593;58;21659;-82
2021/10/06 11:43:17;;;;;;;8.83;7.67;;;;;;;16.53;88.82;100928.15;4989593;59;21254;-84
2021/10/06 11:48:25;;;;;;;15.90;8.03;;;;;;;16.56;88.97;100929.69;4989748;58;21169;-83
2021/10/06 11:53:50;;;;;;;10.63;8.00;;;;;;;16.46;89.08;100939.93;4958210;59;21671;-85
2021/10/06 11:59:10;;;;;;;18.13;13.23;;;;;;;16.36;89.46;100936.92;5117539;57;21136;-87
2021/10/06 12:04:18;;;;;;;16.27;9.23;;;;;;;16.24;89.51;100940.77;5158139;56;21144;-87
2021/10/06 12:09:24;;;;;;;11.97;7.93;;;;;;;16.21;90.00;100941.05;5184429;57;21146;-87
2021/10/06 12:14:33;;;;;;;9.57;8.77;;;;;;;16.23;89.99;100944.42;5184562;57;21176;-86
2021/10/06 12:19:42;;;;;;;8.93;7.43;;;;;;;16.27;90.17;100945.81;5167462;57;22076;-86
2021/10/06 12:24:47;;;;;;;9.67;8.67;;;;;;;16.30;90.29;100954.39;5200490;57;22092;-87
2021/10/06 12:30:09;;;;;;;165.33;109.80;;;;;;;16.32;89.97;100949.75;5202963;57;21076;-86
2021/10/06 12:35:22;;;;;;;24.50;11.10;;;;;;;16.36;90.09;100957.79;5194850;57;21151;-87
2021/10/06 12:40:54;;;;;;;16.97;10.30;;;;;;;16.42;90.16;100964.38;5178455;57;21164;-86
2021/10/06 12:46:05;;;;;;;11.13;8.20;;;;;;;16.40;90.15;100963.19;5179806;57;21147;-87
2021/10/06 12:51:18;;;;;;;13.53;9.53;;;;;;;16.38;89.79;100970.50;5203934;57;21080;-86
2021/10/06 12:56:40;;;;;;;19.70;10.18;;;;;;;16.39;89.88;100967.34;5203070;57;21189;-86
2021/10/06 13:01:50;;;;;;;77.00;49.27;;;;;;;16.38;89.50;100971.84;5203214;57;22081;-81
2021/10/06 13:06:56;;;;;;;32.97;23.17;;;;;;;16.39;89.42;100977.53;5155928;56;21140;-86
2021/10/06 13:12:04;;;;;;;25.63;18.27;;;;;;;16.40;89.61;100971.20;5147650;56;21681;-90
2021/10/06 13:17:10;;;;;;;32.73;26.60;;;;;;;16.39;89.47;100976.19;5140801;56;21108;-86
2021/10/06 13:22:16;;;;;;;12.33;10.30;;;;;;;16.40;89.62;100983.22;5157513;56;21170;-87
2021/10/06 13:27:22;;;;;;;12.60;9.87;;;;;;;16.39;89.50;100987.36;5127040;57;21211;-86
2021/10/06 13:32:28;;;;;;;9.10;7.80;;;;;;;16.35;89.14;100994.81;5123889;58;21265;-87
2021/10/06 13:37:34;;;;;;;12.50;7.63;;;;;;;16.31;88.98;100997.94;5110908;58;22339;-85
2021/10/06 13:42:39;;;;;;;6.30;5.80;;;;;;;16.36;89.21;101005.00;5129801;57;21523;-85
2021/10/06 13:47:46;;;;;;;11.77;6.37;;;;;;;16.40;88.88;101017.08;5121978;57;21584;-87
2021/10/06 13:52:52;;;;;;;9.27;6.27;;;;;;;16.37;88.58;101022.20;5129863;57;21156;-85
2021/10/06 13:57:58;;;;;;;8.80;6.27;;;;;;;16.41;88.76;101025.44;5143108;57;21089;-84
2021/10/06 14:03:04;;;;;;;6.20;5.00;;;;;;;16.46;88.78;101024.52;5131953;58;21136;-84
2021/10/06 14:08:10;;;;;;;6.83;5.70;;;;;;;16.44;88.71;101021.16;5137028;57;21168;-87
2021/10/06 14:13:17;;;;;;;7.07;5.10;;;;;;;16.38;88.74;101024.38;5138793;57;21180;-84
2021/10/06 14:18:23;;;;;;;9.97;4.90;;;;;;;16.36;88.20;101025.02;5133760;57;21151;-85
2021/10/06 14:23:30;;;;;;;6.77;5.00;;;;;;;16.36;88.24;101030.36;5101110;57;21140;-84
2021/10/06 14:28:36;;;;;;;9.63;6.17;;;;;;;16.38;88.19;101031.91;5127036;58;21157;-85
2021/10/06 14:33:44;;;;;;;8.33;5.83;;;;;;;16.37;87.88;101039.56;5132644;58;21185;-85
2021/10/06 14:38:49;;;;;;;7.77;6.60;;;;;;;16.36;87.87;101045.04;5132151;58;21165;-85
2021/10/06 14:43:55;;;;;;;12.30;6.60;;;;;;;16.39;87.99;101050.94;5132195;58;21165;-84
2021/10/06 14:49:01;;;;;;;7.33;6.47;;;;;;;16.40;87.87;101067.31;5131945;58;21160;-84
2021/10/06 14:54:07;;;;;;;12.53;7.97;;;;;;;16.42;87.89;101068.02;5132339;58;21187;-82
2021/10/06 14:59:13;;;;;;;11.63;9.67;;;;;;;16.41;87.54;101078.34;5136904;57;21433;-88
2021/10/06 15:04:19;;;;;;;9.33;7.80;;;;;;;16.44;87.70;101076.73;5088023;58;21220;-87
2021/10/06 15:09:25;;;;;;;9.13;7.57;;;;;;;16.46;87.62;101078.77;5025847;59;21189;-85
2021/10/06 15:14:31;;;;;;;8.13;5.47;;;;;;;16.46;87.67;101081.44;4959688;59;21207;-86
2021/10/06 15:19:37;;;;;;;8.70;5.90;;;;;;;16.46;87.25;101082.77;4962186;59;21268;-85
2021/10/06 15:24:42;;;;;;;8.03;6.17;;;;;;;16.44;87.17;101080.73;4991638;59;21603;-87
2021/10/06 15:29:48;;;;;;;12.10;7.57;;;;;;;16.44;87.31;101087.90;4992387;59;21187;-86
2021/10/06 15:34:54;;;;;;;10.80;7.90;;;;;;;16.41;87.25;101095.70;5031801;58;21645;-85
2021/10/06 15:40:09;;;;;;;6.47;5.87;;;;;;;16.41;87.21;101101.03;4976011;59;21230;-84
2021/10/06 15:45:16;;;;;;;6.60;5.60;;;;;;;16.36;87.25;101100.61;4976333;59;21186;-85
2021/10/06 15:50:22;;;;;;;7.53;5.93;;;;;;;16.31;87.35;101111.38;4976302;59;21300;-86
2021/10/06 15:55:28;;;;;;;15.17;8.83;;;;;;;16.24;87.65;101119.59;5034352;59;21212;-86
2021/10/06 16:00:36;;;;;;;10.40;9.30;;;;;;;16.21;87.87;101135.39;5035001;58;21174;-85
2021/10/06 16:05:41;;;;;;;7.27;6.50;;;;;;;16.16;88.16;101142.50;5037109;58;21144;-83
2021/10/06 16:10:47;;;;;;;5.37;4.97;;;;;;;16.13;88.29;101140.59;5044118;58;22095;-82
2021/10/06 16:15:52;;;;;;;18.37;10.63;;;;;;;16.14;88.25;101151.14;4984599;59;21214;-83
2021/10/06 16:20:58;;;;;;;8.40;6.80;;;;;;;16.18;88.73;101145.03;5037397;59;21158;-83
2021/10/06 16:26:04;;;;;;;12.47;7.67;;;;;;;16.32;88.85;101155.30;4993703;58;21087;-79
2021/10/06 16:31:10;;;;;;;9.90;7.47;;;;;;;16.38;89.13;101156.53;5001908;59;21522;-80
2021/10/06 16:36:16;;;;;;;15.73;9.60;;;;;;;16.48;88.92;101163.58;4999741;59;21163;-84
2021/10/06 16:41:23;;;;;;;21.43;14.73;;;;;;;16.57;88.88;101169.88;5000939;59;21155;-77
2021/10/06 16:46:31;;;;;;;35.67;22.50;;;;;;;16.55;88.46;101173.19;5001148;59;21163;-83
2021/10/06 16:51:37;;;;;;;46.73;28.07;;;;;;;16.53;88.71;101176.48;5003350;59;21204;-79
2021/10/06 16:56:43;;;;;;;92.93;47.53;;;;;;;16.59;88.82;101184.44;5000074;59;21653;-80
2021/10/06 17:01:49;;;;;;;80.93;44.87;;;;;;;16.64;88.85;101187.08;5000334;59;21155;-78
2021/10/06 17:06:56;;;;;;;67.30;39.93;;;;;;;16.62;88.62;101197.02;5003066;59;21190;-78
2021/10/06 17:12:02;;;;;;;48.60;28.80;;;;;;;16.62;88.84;101193.50;4999852;59;21213;-79
2021/10/06 17:17:07;;;;;;;25.23;17.50;;;;;;;16.61;88.63;101206.02;5004632;59;21148;-79
2021/10/06 17:22:14;;;;;;;15.30;11.73;;;;;;;16.62;88.59;101210.87;4991125;59;21695;-79
2021/10/06 17:27:20;;;;;;;21.80;12.97;;;;;;;16.59;88.70;101214.66;5060803;58;21164;-78
2021/10/06 17:32:25;;;;;;;52.37;26.67;;;;;;;16.50;88.34;101215.48;5092335;58;22043;-79
2021/10/06 17:37:34;;;;;;;34.80;19.33;;;;;;;16.34;88.04;101224.07;5087505;58;21156;-78
2021/10/06 17:42:39;;;;;;;28.50;17.43;;;;;;;16.21;87.98;101226.63;5088214;58;21167;-78
2021/10/06 17:47:47;;;;;;;49.00;27.07;;;;;;;16.09;88.22;101226.75;5072002;58;21637;-77
2021/10/06 17:52:54;;;;;;;75.60;35.93;;;;;;;16.06;88.67;101223.50;5119735;57;21160;-76
2021/10/06 17:58:00;;;;;;;85.90;38.80;;;;;;;16.00;88.90;101232.08;5210613;57;21179;-78
2021/10/06 18:03:06;;;;;;;96.03;45.10;;;;;;;15.99;89.02;101229.05;5202002;57;21487;-77
2021/10/06 18:08:12;;;;;;;113.23;52.70;;;;;;;16.07;89.70;101233.20;5140164;57;21151;-77
2021/10/06 18:13:18;;;;;;;187.80;73.83;;;;;;;16.11;89.59;101238.14;5205722;57;21072;-79
2021/10/06 18:18:24;;;;;;;155.13;66.60;;;;;;;16.13;89.44;101242.85;5225294;57;21173;-77
2021/10/06 18:23:30;;;;;;;110.60;54.03;;;;;;;16.12;89.87;101246.98;5212683;56;21462;-78
2021/10/06 18:28:36;;;;;;;50.73;25.93;;;;;;;16.06;89.17;101259.04;5169197;56;21143;-78
2021/10/06 18:33:42;;;;;;;44.57;24.27;;;;;;;15.90;88.89;101265.38;5162892;57;21143;-79
2021/10/06 18:38:48;;;;;;;49.63;24.77;;;;;;;15.80;89.25;101268.02;5167871;57;21160;-80
2021/10/06 18:43:54;;;;;;;33.53;23.10;;;;;;;15.75;89.60;101266.23;5168809;57;21179;-79
2021/10/06 18:49:02;;;;;;;33.77;15.73;;;;;;;15.67;89.74;101273.23;5160912;57;21148;-79
2021/10/06 18:54:10;;;;;;;21.40;13.67;;;;;;;15.57;89.90;101270.53;5169268;57;21184;-79
2021/10/06 18:59:16;;;;;;;24.87;14.97;;;;;;;15.51;90.09;101282.16;5170771;57;21196;-77
2021/10/06 19:04:22;;;;;;;23.47;14.57;;;;;;;15.45;90.28;101278.19;5153947;57;21179;-78
2021/10/06 19:09:28;;;;;;;20.53;14.20;;;;;;;15.42;90.52;101278.48;5154694;57;21208;-80
2021/10/06 19:14:34;;;;;;;18.80;13.27;;;;;;;15.35;90.68;101291.48;5154512;57;21204;-77
2021/10/06 19:19:39;;;;;;;18.43;12.70;;;;;;;15.29;90.78;101297.31;5156938;57;21195;-76
2021/10/06 19:24:48;;;;;;;22.27;13.03;;;;;;;15.27;91.07;101301.95;5169857;57;21179;-78
2021/10/06 19:29:54;;;;;;;19.97;14.03;;;;;;;15.42;92.19;101306.47;5163351;57;21201;-78
2021/10/06 19:35:00;;;;;;;24.83;15.97;;;;;;;15.53;91.69;101309.55;5150466;57;21235;-78
2021/10/06 19:40:08;;;;;;;24.33;17.03;;;;;;;15.48;91.22;101318.77;5159036;57;21124;-78
2021/10/06 19:45:16;;;;;;;21.93;14.83;;;;;;;15.38;91.26;101315.70;5163348;57;21527;-78
2021/10/06 19:50:23;;;;;;;24.53;16.33;;;;;;;15.30;91.29;101317.66;5153692;57;21493;-80
2021/10/06 19:55:29;;;;;;;15.27;10.53;;;;;;;15.23;91.37;101322.33;5161795;57;21119;-81
2021/10/06 20:00:36;;;;;;;15.37;11.40;;;;;;;15.20;91.64;101327.91;5162888;57;21134;-78
2021/10/06 20:05:42;;;;;;;16.13;9.97;;;;;;;15.19;91.72;101335.54;5166353;57;21084;-79
2021/10/06 20:10:48;;;;;;;11.77;8.43;;;;;;;15.14;91.67;101337.25;5163519;57;21606;-79
2021/10/06 20:15:53;;;;;;;11.33;9.67;;;;;;;15.06;91.75;101343.72;5156738;57;21073;-77
2021/10/06 20:21:00;;;;;;;12.70;9.33;;;;;;;15.02;92.30;101349.78;5160089;57;21178;-81
2021/10/06 20:26:05;;;;;;;14.47;8.97;;;;;;;15.02;92.32;101350.27;5162155;56;22394;-79
2021/10/06 20:31:11;;;;;;;12.20;8.97;;;;;;;14.99;92.46;101347.36;5216122;57;21184;-78
2021/10/06 20:41:32;;;;;;;18.93;12.77;;;;;;;14.99;92.57;101357.17;5214164;57;21123;-77
2021/10/06 20:46:38;;;;;;;26.07;11.53;;;;;;;14.99;92.80;101360.69;5214127;57;21211;-79
2021/10/06 20:51:44;;;;;;;24.73;16.57;;;;;;;15.06;92.95;101355.22;5214239;57;21177;-78
2021/10/06 20:56:50;;;;;;;51.57;26.10;;;;;;;15.12;93.23;101353.88;5206809;57;21140;-79
2021/10/06 21:01:56;;;;;;;53.93;37.53;;;;;;;15.13;93.35;101352.88;5130262;57;21163;-79
2021/10/06 21:07:02;;;;;;;38.23;24.87;;;;;;;15.18;92.92;101357.83;5020450;59;21204;-79
2021/10/06 21:12:07;;;;;;;22.87;13.47;;;;;;;15.25;93.38;101346.55;5189568;57;21605;-80
2021/10/06 21:17:13;;;;;;;16.27;11.87;;;;;;;15.28;93.00;101351.59;5188727;57;21163;-78
2021/10/06 21:22:20;;;;;;;30.50;17.93;;;;;;;15.29;92.73;101355.95;5177273;57;22151;-79
2021/10/06 21:27:29;;;;;;;29.47;16.50;;;;;;;15.37;93.60;101353.50;5101602;57;21119;-79
2021/10/06 21:32:35;;;;;;;33.70;17.73;;;;;;;15.38;93.08;101363.19;5135274;57;21236;-80
2021/10/06 21:37:42;;;;;;;21.00;13.00;;;;;;;15.29;92.40;101373.27;5135088;57;21442;-77
2021/10/06 21:42:48;;;;;;;24.70;13.70;;;;;;;15.20;92.20;101373.20;5136362;57;21172;-77
2021/10/06 21:47:55;;;;;;;20.87;14.07;;;;;;;15.11;92.37;101371.69;5136569;57;21545;-80
2021/10/06 21:53:01;;;;;;;35.40;20.67;;;;;;;15.17;93.14;101381.45;5138652;57;21120;-78
2021/10/06 21:58:07;;;;;;;26.90;18.60;;;;;;;15.27;93.45;101381.06;5133426;57;21164;-79
2021/10/06 22:03:13;;;;;;;43.50;28.40;;;;;;;15.33;93.63;101386.71;5132293;58;21156;-78
2021/10/06 22:08:19;;;;;;;32.20;18.50;;;;;;;15.41;93.73;101389.59;5132490;58;21672;-77
2021/10/06 22:13:29;;;;;;;27.53;15.80;;;;;;;15.37;92.78;101389.97;5134969;57;21081;-79
2021/10/06 22:18:32;;;;;;;34.00;18.40;;;;;;;15.36;92.92;101397.61;5073242;58;21164;-77
2021/10/06 22:23:38;;;;;;;47.17;29.30;;;;;;;15.37;93.03;101401.97;5143845;57;21092;-77
2021/10/06 22:28:43;;;;;;;33.70;18.63;;;;;;;15.34;93.00;101404.40;5150344;56;21507;-76
2021/10/06 22:33:49;;;;;;;35.40;18.53;;;;;;;15.36;93.24;101407.78;5151571;56;22065;-76
2021/10/06 22:38:55;;;;;;;22.23;14.90;;;;;;;15.32;92.72;101412.16;5157019;56;21156;-78
2021/10/06 22:44:01;;;;;;;25.93;16.23;;;;;;;15.21;92.44;101421.53;5180696;56;21098;-77
2021/10/06 22:49:07;;;;;;;28.07;15.43;;;;;;;15.09;92.46;101420.25;5126924;56;21205;-77
2021/10/06 22:54:12;;;;;;;23.23;14.27;;;;;;;15.04;92.73;101427.77;4925466;58;27124;-80
2021/10/06 22:59:18;;;;;;;40.63;18.67;;;;;;;14.98;92.80;101426.92;5067064;57;21163;-79
2021/10/06 23:04:23;;;;;;;36.30;19.30;;;;;;;15.02;93.23;101428.38;5052597;57;21154;-80
2021/10/06 23:09:29;;;;;;;32.00;18.63;;;;;;;15.12;94.07;101430.63;5068061;57;22068;-77
2021/10/06 23:14:36;;;;;;;24.50;16.57;;;;;;;15.22;94.18;101436.56;5049858;57;21648;-79
2021/10/06 23:19:42;;;;;;;26.73;15.03;;;;;;;15.29;94.19;101439.06;5068638;57;21198;-80
2021/10/06 23:24:47;;;;;;;25.33;15.73;;;;;;;15.35;93.87;101442.08;5072997;57;21151;-77
2021/10/06 23:29:53;;;;;;;22.97;16.73;;;;;;;15.37;93.53;101445.95;5013818;58;21554;-79
2021/10/06 23:35:01;;;;;;;23.20;18.80;;;;;;;15.32;93.20;101447.66;4992607;58;21237;-77